Time,TemperatureF,DewpointF,PressureIn,WindDirection,WindDirectionDegrees,WindSpeedMPH,WindSpeedGustMPH,Humidity,HourlyPrecipIn,Conditions,Clouds,dailyrainin,SoftwareType,DateUTC
2013-03-19 00:00:00,68.0,-99.9,29.87,North,3,4.0,5.0,-999,-99.99,,,-99.99,,2013-03-19 04:00:00,
2013-03-19 00:43:00,68.0,-99.9,29.87,North,3,4.0,5.0,-999,-99.99,,,-99.99,,2013-03-19 04:43:00,
2013-03-19 00:53:00,68.0,-99.9,29.87,North,3,4.0,5.0,-999,-99.99,,,-99.99,,2013-03-19 04:53:00,
2013-03-19 01:00:00,68.0,-99.9,29.88,North,354,5.0,6.0,-999,-99.99,,,-99.99,,2013-03-19 05:00:00,
2013-03-19 01:22:00,68.0,-99.9,29.88,North,354,5.0,6.0,-999,-99.99,,,-99.99,,2013-03-19 05:22:00,
2013-03-19 01:33:00,68.0,-99.9,29.88,North,354,5.0,6.0,-999,-99.99,,,-99.99,,2013-03-19 05:33:00,
2013-03-19 01:43:00,68.0,-99.9,29.88,North,354,5.0,6.0,-999,-99.99,,,-99.99,,2013-03-19 05:43:00,
2013-03-19 01:52:00,68.0,-99.9,29.88,North,354,5.0,6.0,-999,-99.99,,,-99.99,,2013-03-19 05:52:00,
2013-03-19 02:00:00,68.0,-99.9,29.86,NE,51,6.0,7.0,-999,-99.99,,,-99.99,,2013-03-19 06:00:00,
2013-03-19 02:32:00,68.0,-99.9,29.86,NE,51,6.0,7.0,-999,-99.99,,,-99.99,,2013-03-19 06:32:00,
2013-03-19 02:42:00,68.0,-99.9,29.86,NE,51,6.0,7.0,-999,-99.99,,,-99.99,,2013-03-19 06:42:00,
2013-03-19 02:53:00,68.0,-99.9,29.86,NE,51,6.0,7.0,-999,-99.99,,,-99.99,,2013-03-19 06:53:00,
2013-03-19 03:00:00,70.0,-99.9,29.87,North,9,14.0,16.0,-999,-99.99,,,-99.99,,2013-03-19 07:00:00,
2013-03-19 03:32:00,70.0,-99.9,29.87,North,9,14.0,16.0,-999,-99.99,,,-99.99,,2013-03-19 07:32:00,
2013-03-19 03:42:00,70.0,-99.9,29.87,North,9,14.0,16.0,-999,-99.99,,,-99.99,,2013-03-19 07:42:00,
2013-03-19 03:53:00,70.0,-99.9,29.87,North,9,14.0,16.0,-999,-99.99,,,-99.99,,2013-03-19 07:53:00,
2013-03-19 04:00:00,69.0,-99.9,29.88,NNE,18,17.0,21.0,-999,-99.99,,,-99.99,,2013-03-19 08:00:00,
2013-03-19 04:33:00,69.0,-99.9,29.88,NNE,18,17.0,21.0,-999,-99.99,,,-99.99,,2013-03-19 08:33:00,
2013-03-19 04:43:00,69.0,-99.9,29.88,NNE,18,17.0,21.0,-999,-99.99,,,-99.99,,2013-03-19 08:43:00,
2013-03-19 04:53:00,69.0,-99.9,29.88,NNE,18,17.0,21.0,-999,-99.99,,,-99.99,,2013-03-19 08:53:00,
2013-03-19 05:00:00,69.0,-99.9,29.88,NE,40,13.0,15.0,-999,-99.99,,,-99.99,,2013-03-19 09:00:00,
2013-03-19 05:33:00,69.0,-99.9,29.88,NE,40,13.0,15.0,-999,-99.99,,,-99.99,,2013-03-19 09:33:00,
2013-03-19 05:43:00,69.0,-99.9,29.88,NE,40,13.0,15.0,-999,-99.99,,,-99.99,,2013-03-19 09:43:00,
2013-03-19 05:53:00,69.0,-99.9,29.88,NE,40,13.0,15.0,-999,-99.99,,,-99.99,,2013-03-19 09:53:00,
2013-03-19 06:00:00,68.0,-99.9,29.88,NE,54,11.0,13.0,-999,-99.99,,,-99.99,,2013-03-19 10:00:00,
2013-03-19 06:33:00,68.0,-99.9,29.88,NE,54,11.0,13.0,-999,-99.99,,,-99.99,,2013-03-19 10:33:00,
2013-03-19 06:42:00,68.0,-99.9,29.88,NE,54,11.0,13.0,-999,-99.99,,,-99.99,,2013-03-19 10:42:00,
2013-03-19 06:53:00,68.0,-99.9,29.88,NE,54,11.0,13.0,-999,-99.99,,,-99.99,,2013-03-19 10:53:00,
2013-03-19 07:00:00,69.0,-99.9,29.88,ENE,67,15.0,18.0,-999,-99.99,,,-99.99,,2013-03-19 11:00:00,
2013-03-19 07:22:00,69.0,-99.9,29.88,ENE,67,15.0,18.0,-999,-99.99,,,-99.99,,2013-03-19 11:22:00,
2013-03-19 07:33:00,69.0,-99.9,29.88,ENE,67,15.0,18.0,-999,-99.99,,,-99.99,,2013-03-19 11:33:00,
2013-03-19 07:43:00,69.0,-99.9,29.88,ENE,67,15.0,18.0,-999,-99.99,,,-99.99,,2013-03-19 11:43:00,
2013-03-19 07:53:00,69.0,-99.9,29.88,ENE,67,15.0,18.0,-999,-99.99,,,-99.99,,2013-03-19 11:53:00,
2013-03-19 08:00:00,68.0,-99.9,29.88,East,82,25.0,28.0,-999,-99.99,,,-99.99,,2013-03-19 12:00:00,
2013-03-19 08:33:00,68.0,-99.9,29.88,East,82,25.0,28.0,-999,-99.99,,,-99.99,,2013-03-19 12:33:00,
2013-03-19 08:43:00,68.0,-99.9,29.88,East,82,25.0,28.0,-999,-99.99,,,-99.99,,2013-03-19 12:43:00,
2013-03-19 08:52:00,68.0,-99.9,29.88,East,82,25.0,28.0,-999,-99.99,,,-99.99,,2013-03-19 12:52:00,
2013-03-19 09:00:00,67.0,-99.9,29.90,East,86,26.0,30.0,-999,-99.99,,,-99.99,,2013-03-19 13:00:00,
2013-03-19 09:33:00,67.0,-99.9,29.90,East,86,26.0,30.0,-999,-99.99,,,-99.99,,2013-03-19 13:33:00,
2013-03-19 09:42:00,67.0,-99.9,29.90,East,86,26.0,30.0,-999,-99.99,,,-99.99,,2013-03-19 13:42:00,
2013-03-19 09:53:00,67.0,-99.9,29.90,East,86,26.0,30.0,-999,-99.99,,,-99.99,,2013-03-19 13:53:00,
2013-03-19 10:00:00,67.0,-99.9,29.93,East,91,23.0,28.0,-999,-99.99,,,-99.99,,2013-03-19 14:00:00,
2013-03-19 10:33:00,67.0,-99.9,29.93,East,91,23.0,28.0,-999,-99.99,,,-99.99,,2013-03-19 14:33:00,
2013-03-19 10:42:00,67.0,-99.9,29.93,East,91,23.0,28.0,-999,-99.99,,,-99.99,,2013-03-19 14:42:00,
2013-03-19 10:53:00,67.0,-99.9,29.93,East,91,23.0,28.0,-999,-99.99,,,-99.99,,2013-03-19 14:53:00,
2013-03-19 12:00:00,67.0,-99.9,29.96,East,101,19.0,23.0,-999,-99.99,,,-99.99,,2013-03-19 16:00:00,
2013-03-19 12:34:00,67.0,-99.9,29.96,East,101,19.0,23.0,-999,-99.99,,,-99.99,,2013-03-19 16:34:00,
2013-03-19 12:44:00,67.0,-99.9,29.96,East,101,19.0,23.0,-999,-99.99,,,-99.99,,2013-03-19 16:44:00,
2013-03-19 12:55:00,67.0,-99.9,29.96,East,101,19.0,23.0,-999,-99.99,,,-99.99,,2013-03-19 16:55:00,
2013-03-19 13:00:00,68.0,-99.9,29.96,ESE,103,19.0,22.0,-999,-99.99,,,-99.99,,2013-03-19 17:00:00,
2013-03-19 13:35:00,68.0,-99.9,29.96,ESE,103,19.0,22.0,-999,-99.99,,,-99.99,,2013-03-19 17:35:00,
2013-03-19 13:44:00,68.0,-99.9,29.96,ESE,103,19.0,22.0,-999,-99.99,,,-99.99,,2013-03-19 17:44:00,
2013-03-19 13:53:00,68.0,-99.9,29.96,ESE,103,19.0,22.0,-999,-99.99,,,-99.99,,2013-03-19 17:53:00,
2013-03-19 14:00:00,69.0,-99.9,29.95,ESE,106,15.0,18.0,-999,-99.99,,,-99.99,,2013-03-19 18:00:00,
2013-03-19 14:34:00,69.0,-99.9,29.95,ESE,106,15.0,18.0,-999,-99.99,,,-99.99,,2013-03-19 18:34:00,
2013-03-19 14:44:00,69.0,-99.9,29.95,ESE,106,15.0,18.0,-999,-99.99,,,-99.99,,2013-03-19 18:44:00,
2013-03-19 14:54:00,69.0,-99.9,29.95,ESE,106,15.0,18.0,-999,-99.99,,,-99.99,,2013-03-19 18:54:00,
2013-03-19 15:00:00,69.0,-99.9,29.92,ESE,106,13.0,15.0,-999,-99.99,,,-99.99,,2013-03-19 19:00:00,
2013-03-19 15:33:00,69.0,-99.9,29.92,ESE,106,13.0,15.0,-999,-99.99,,,-99.99,,2013-03-19 19:33:00,
2013-03-19 15:43:00,69.0,-99.9,29.92,ESE,106,13.0,15.0,-999,-99.99,,,-99.99,,2013-03-19 19:43:00,
2013-03-19 15:53:00,69.0,-99.9,29.92,ESE,106,13.0,15.0,-999,-99.99,,,-99.99,,2013-03-19 19:53:00,
2013-03-19 16:00:00,70.0,-99.9,29.89,ESE,111,11.0,13.0,-999,-99.99,,,-99.99,,2013-03-19 20:00:00,
2013-03-19 16:33:00,70.0,-99.9,29.89,ESE,111,11.0,13.0,-999,-99.99,,,-99.99,,2013-03-19 20:33:00,
2013-03-19 16:43:00,70.0,-99.9,29.89,ESE,111,11.0,13.0,-999,-99.99,,,-99.99,,2013-03-19 20:43:00,
2013-03-19 16:53:00,70.0,-99.9,29.89,ESE,111,11.0,13.0,-999,-99.99,,,-99.99,,2013-03-19 20:53:00,
2013-03-19 17:00:00,69.0,-99.9,29.87,ESE,110,13.0,15.0,-999,-99.99,,,-99.99,,2013-03-19 21:00:00,
2013-03-19 17:34:00,69.0,-99.9,29.87,ESE,110,13.0,15.0,-999,-99.99,,,-99.99,,2013-03-19 21:34:00,
2013-03-19 17:43:00,69.0,-99.9,29.87,ESE,110,13.0,15.0,-999,-99.99,,,-99.99,,2013-03-19 21:43:00,
2013-03-19 17:53:00,69.0,-99.9,29.87,ESE,110,13.0,15.0,-999,-99.99,,,-99.99,,2013-03-19 21:53:00,
2013-03-19 18:00:00,68.0,-99.9,29.87,East,94,12.0,14.0,-999,-99.99,,,-99.99,,2013-03-19 22:00:00,
2013-03-19 18:34:00,68.0,-99.9,29.87,East,94,12.0,14.0,-999,-99.99,,,-99.99,,2013-03-19 22:34:00,
2013-03-19 18:44:00,68.0,-99.9,29.87,East,94,12.0,14.0,-999,-99.99,,,-99.99,,2013-03-19 22:44:00,
2013-03-19 18:54:00,68.0,-99.9,29.87,East,94,12.0,14.0,-999,-99.99,,,-99.99,,2013-03-19 22:54:00,
2013-03-19 19:00:00,68.0,-99.9,29.85,East,97,15.0,17.0,-999,-99.99,,,-99.99,,2013-03-19 23:00:00,
2013-03-19 19:33:00,68.0,-99.9,29.85,East,97,15.0,17.0,-999,-99.99,,,-99.99,,2013-03-19 23:33:00,
2013-03-19 19:43:00,68.0,-99.9,29.85,East,97,15.0,17.0,-999,-99.99,,,-99.99,,2013-03-19 23:43:00,
2013-03-19 19:53:00,68.0,-99.9,29.85,East,97,15.0,17.0,-999,-99.99,,,-99.99,,2013-03-19 23:53:00,
2013-03-19 20:00:00,67.0,-99.9,29.85,East,90,16.0,18.0,-999,-99.99,,,-99.99,,2013-03-20 00:00:00,
2013-03-19 20:33:00,67.0,-99.9,29.85,East,90,16.0,18.0,-999,-99.99,,,-99.99,,2013-03-20 00:33:00,
2013-03-19 20:43:00,67.0,-99.9,29.85,East,90,16.0,18.0,-999,-99.99,,,-99.99,,2013-03-20 00:43:00,
2013-03-19 20:53:00,67.0,-99.9,29.85,East,90,16.0,18.0,-999,-99.99,,,-99.99,,2013-03-20 00:53:00,
2013-03-19 21:00:00,67.0,-99.9,29.85,East,92,18.0,20.0,-999,-99.99,,,-99.99,,2013-03-20 01:00:00,
2013-03-19 21:33:00,67.0,-99.9,29.85,East,92,18.0,20.0,-999,-99.99,,,-99.99,,2013-03-20 01:33:00,
2013-03-19 21:43:00,67.0,-99.9,29.85,East,92,18.0,20.0,-999,-99.99,,,-99.99,,2013-03-20 01:43:00,
2013-03-19 21:53:00,67.0,-99.9,29.85,East,92,18.0,20.0,-999,-99.99,,,-99.99,,2013-03-20 01:53:00,
2013-03-19 22:00:00,67.0,-99.9,29.85,East,91,19.0,23.0,-999,-99.99,,,-99.99,,2013-03-20 02:00:00,
2013-03-19 22:32:00,67.0,-99.9,29.85,East,91,19.0,23.0,-999,-99.99,,,-99.99,,2013-03-20 02:32:00,
2013-03-19 22:43:00,67.0,-99.9,29.85,East,91,19.0,23.0,-999,-99.99,,,-99.99,,2013-03-20 02:43:00,
2013-03-19 22:53:00,67.0,-99.9,29.85,East,91,19.0,23.0,-999,-99.99,,,-99.99,,2013-03-20 02:53:00,
2013-03-19 23:00:00,66.0,-99.9,29.88,East,86,23.0,26.0,-999,-99.99,,,-99.99,,2013-03-20 03:00:00,
2013-03-19 23:34:00,66.0,-99.9,29.88,East,86,23.0,26.0,-999,-99.99,,,-99.99,,2013-03-20 03:34:00,
2013-03-19 23:43:00,66.0,-99.9,29.88,East,86,23.0,26.0,-999,-99.99,,,-99.99,,2013-03-20 03:43:00,
2013-03-19 23:53:00,66.0,-99.9,29.88,East,86,23.0,26.0,-999,-99.99,,,-99.99,,2013-03-20 03:53:00,